Time;durP1;ratioP1;P1;durP2;ratioP2;P2;SDS_P1;SDS_P2;PMS_P1;PMS_P2;Temp;Humidity;BMP_temperature;BMP_pressure;BME280_temperature;BME280_humidity;BME280_pressure;Samples;Min_cycle;Max_cycle;Signal;HPM_P1;HPM_P2
2021/04/14 00:00:44;;;;;;;0.60;0.40;;;;;;;3.42;79.55;102231.84;5114323;28;20451;-65
2021/04/14 00:03:15;;;;;;;0.40;0.30;;;;;;;3.44;79.81;102227.91;5114108;28;21044;-65
2021/04/14 00:05:41;;;;;;;0.40;0.30;;;;;;;3.47;79.00;102226.69;5114197;28;20463;-63
2021/04/14 00:08:08;;;;;;;0.60;0.50;;;;;;;3.43;79.23;102220.91;5114097;28;20489;-65
2021/04/14 00:10:37;;;;;;;0.40;0.30;;;;;;;3.42;79.41;102226.50;5114200;28;20436;-65
2021/04/14 00:13:04;;;;;;;0.40;0.30;;;;;;;3.30;78.82;102223.66;5113653;28;20454;-65
2021/04/14 00:15:34;;;;;;;0.40;0.30;;;;;;;3.10;78.90;102218.38;5113997;28;20435;-65
2021/04/14 00:18:00;;;;;;;1.23;0.77;;;;;;;3.14;79.28;102214.22;5113603;28;21017;-66
2021/04/14 00:20:26;;;;;;;0.40;0.30;;;;;;;3.13;79.93;102217.94;5114048;28;20436;-65
2021/04/14 00:22:52;;;;;;;4.23;0.93;;;;;;;3.17;79.57;102221.84;5113473;28;20866;-65
2021/04/14 00:25:25;;;;;;;0.40;0.30;;;;;;;3.16;80.37;102228.22;5113931;28;20479;-65
2021/04/14 00:27:51;;;;;;;0.40;0.30;;;;;;;3.21;79.93;102227.59;5113333;28;20440;-66
2021/04/14 00:30:18;;;;;;;0.40;0.20;;;;;;;3.20;79.65;102223.28;5112810;28;20466;-65
2021/04/14 00:32:44;;;;;;;0.40;0.30;;;;;;;3.21;79.61;102220.38;5113561;28;20459;-65
2021/04/14 00:35:11;;;;;;;0.40;0.30;;;;;;;3.18;79.54;102226.16;5113681;28;20508;-65
2021/04/14 00:37:37;;;;;;;0.40;0.30;;;;;;;3.01;79.44;102224.97;5113780;28;20447;-65
2021/04/14 00:40:05;;;;;;;0.57;0.43;;;;;;;3.06;79.49;102221.69;5112949;28;20459;-65
2021/04/14 00:42:32;;;;;;;12.17;0.97;;;;;;;2.92;80.67;102220.88;5113603;28;20460;-65
2021/04/14 00:44:58;;;;;;;0.40;0.30;;;;;;;2.89;81.93;102215.97;5113631;28;20528;-65
2021/04/14 00:47:24;;;;;;;0.40;0.30;;;;;;;2.95;82.43;102225.81;5113638;28;20447;-65
2021/04/14 00:49:52;;;;;;;0.40;0.30;;;;;;;2.92;82.07;102212.84;5113758;28;20446;-66
2021/04/14 00:52:18;;;;;;;0.40;0.30;;;;;;;2.97;82.48;102218.41;5113561;28;20475;-66
2021/04/14 00:54:44;;;;;;;0.40;0.30;;;;;;;2.97;82.53;102216.56;5113315;28;20816;-66
2021/04/14 00:57:10;;;;;;;0.40;0.30;;;;;;;2.97;82.32;102221.09;5116161;28;20492;-65
2021/04/14 00:59:37;;;;;;;0.40;0.30;;;;;;;2.93;82.87;102209.16;5117490;28;20963;-66
2021/04/14 01:02:04;;;;;;;0.40;0.30;;;;;;;2.89;83.19;102213.28;5117754;28;20464;-66
2021/04/14 01:04:30;;;;;;;0.40;0.37;;;;;;;2.91;83.56;102220.06;5117660;28;20485;-65
2021/04/14 01:06:56;;;;;;;0.87;0.87;;;;;;;2.89;83.43;102218.63;5117545;28;20438;-65
2021/04/14 01:09:22;;;;;;;0.40;0.33;;;;;;;2.92;83.05;102215.53;5117571;28;20484;-66
2021/04/14 01:11:48;;;;;;;0.40;0.40;;;;;;;2.88;83.34;102219.66;5117579;28;20462;-66
2021/04/14 01:14:14;;;;;;;0.40;0.30;;;;;;;2.81;82.66;102222.34;5117504;28;20438;-65
2021/04/14 01:16:40;;;;;;;0.40;0.30;;;;;;;2.81;83.31;102219.69;5117540;28;20466;-65
2021/04/14 01:19:07;;;;;;;0.40;0.30;;;;;;;2.81;83.43;102221.53;5117348;28;20440;-66
2021/04/14 01:21:36;;;;;;;0.40;0.30;;;;;;;2.80;83.66;102218.03;5117258;28;20481;-66
2021/04/14 01:24:02;;;;;;;0.40;0.30;;;;;;;2.77;83.89;102216.59;5117283;28;20561;-66
2021/04/14 01:26:28;;;;;;;0.40;0.30;;;;;;;2.70;84.18;102218.47;5117275;28;20820;-66
2021/04/14 01:28:54;;;;;;;0.40;0.30;;;;;;;2.64;84.68;102210.44;5117449;28;20451;-65
2021/04/14 01:31:32;;;;;;;0.40;0.30;;;;;;;2.59;85.06;102210.25;5117396;28;20459;-66
2021/04/14 01:33:58;;;;;;;0.40;0.30;;;;;;;2.50;85.45;102202.44;5117177;28;20426;-63
2021/04/14 01:36:24;;;;;;;0.40;0.30;;;;;;;2.55;85.90;102209.84;5117008;28;20447;-63
2021/04/14 01:38:51;;;;;;;0.40;0.30;;;;;;;2.57;85.58;102202.44;5117009;28;20442;-64
2021/04/14 01:41:17;;;;;;;0.40;0.30;;;;;;;2.57;85.57;102202.44;5116983;28;20541;-65
2021/04/14 01:43:43;;;;;;;0.40;0.30;;;;;;;2.50;85.92;102202.44;5116589;28;20963;-65
2021/04/14 01:46:09;;;;;;;0.40;0.30;;;;;;;2.53;85.58;102206.56;5116847;28;20443;-65
2021/04/14 01:48:35;;;;;;;0.40;0.30;;;;;;;2.54;86.39;102208.19;5116500;28;20457;-65
2021/04/14 01:51:01;;;;;;;0.40;0.30;;;;;;;2.57;86.39;102199.75;5116429;28;20442;-66
2021/04/14 01:53:27;;;;;;;0.40;0.30;;;;;;;2.53;86.18;102204.69;5116742;28;20438;-66
2021/04/14 01:55:54;;;;;;;0.40;0.30;;;;;;;2.53;86.39;102201.19;5116682;28;20448;-65
2021/04/14 01:58:21;;;;;;;0.60;0.60;;;;;;;2.46;86.97;102195.84;5116590;28;20446;-65
2021/04/14 02:00:52;;;;;;;0.40;0.30;;;;;;;2.45;86.59;102199.56;5116671;28;20497;-64
2021/04/14 02:03:19;;;;;;;0.83;0.77;;;;;;;2.40;87.30;102196.69;5116521;28;21026;-65
2021/04/14 02:05:45;;;;;;;0.40;0.30;;;;;;;2.43;87.61;102196.25;5116571;28;20475;-64
2021/04/14 02:08:12;;;;;;;0.40;0.30;;;;;;;2.41;87.97;102200.19;5115808;28;20974;-65
2021/04/14 02:10:39;;;;;;;0.40;0.30;;;;;;;2.39;88.14;102195.03;5116702;28;20438;-65
2021/04/14 02:13:10;;;;;;;55.23;2.87;;;;;;;2.39;88.45;102195.03;5116205;28;20459;-65
2021/04/14 02:15:36;;;;;;;0.40;0.30;;;;;;;2.31;88.74;102186.41;5116339;28;20427;-64
2021/04/14 02:18:04;;;;;;;0.40;0.30;;;;;;;2.31;88.41;102194.44;5116251;28;20443;-65
2021/04/14 02:20:31;;;;;;;0.40;0.30;;;;;;;2.30;88.45;102184.75;5116049;28;20440;-65
2021/04/14 02:22:57;;;;;;;0.40;0.30;;;;;;;2.29;89.21;102189.28;5115845;28;20466;-66
2021/04/14 02:25:24;;;;;;;0.47;0.37;;;;;;;2.36;88.92;102191.97;5116154;28;20479;-66
2021/04/14 02:27:50;;;;;;;0.40;0.30;;;;;;;2.40;88.64;102186.00;5116208;28;20435;-66
2021/04/14 02:30:20;;;;;;;0.60;0.60;;;;;;;2.37;88.79;102183.72;5115994;28;20439;-66
2021/04/14 02:32:47;;;;;;;0.40;0.30;;;;;;;2.36;88.35;102178.59;5116024;28;20466;-66
2021/04/14 02:35:13;;;;;;;0.40;0.30;;;;;;;2.33;88.75;102185.16;5115760;28;21303;-66
2021/04/14 02:37:39;;;;;;;0.40;0.30;;;;;;;2.31;89.38;102189.09;5115869;28;20439;-65
2021/04/14 02:40:06;;;;;;;0.40;0.30;;;;;;;2.31;89.35;102189.09;5115907;28;20492;-65
2021/04/14 02:42:32;;;;;;;0.40;0.30;;;;;;;2.31;89.24;102191.75;5115852;28;20807;-67
2021/04/14 02:44:58;;;;;;;0.40;0.30;;;;;;;2.27;89.49;102194.84;5115794;28;20486;-67
2021/04/14 02:47:25;;;;;;;0.40;0.30;;;;;;;2.26;89.20;102192.38;5115812;28;20499;-66
2021/04/14 02:49:51;;;;;;;0.47;0.37;;;;;;;2.16;88.86;102190.09;5115447;28;20439;-66
2021/04/14 02:52:16;;;;;;;0.50;0.40;;;;;;;2.20;89.63;102188.66;5115603;28;20589;-67
2021/04/14 02:54:42;;;;;;;0.40;0.30;;;;;;;2.19;89.29;102195.03;5115585;28;20814;-67
2021/04/14 02:57:08;;;;;;;0.40;0.30;;;;;;;2.18;89.43;102190.72;5115819;28;20512;-67
2021/04/14 02:59:34;;;;;;;0.40;0.30;;;;;;;2.19;89.53;102189.69;5115560;28;20445;-66
2021/04/14 03:02:00;;;;;;;0.40;0.30;;;;;;;2.15;90.00;102195.66;5115163;28;21041;-68
2021/04/14 03:04:27;;;;;;;0.40;0.30;;;;;;;2.07;90.21;102194.00;5114868;28;20490;-68
2021/04/14 03:06:54;;;;;;;0.40;0.30;;;;;;;2.04;90.35;102191.75;5115418;28;20477;-67
2021/04/14 03:09:20;;;;;;;0.40;0.30;;;;;;;2.11;90.44;102194.41;5115298;28;20440;-66
2021/04/14 03:11:46;;;;;;;0.40;0.30;;;;;;;2.08;90.23;102198.34;5115472;28;20458;-66
2021/04/14 03:14:12;;;;;;;0.50;0.40;;;;;;;1.94;90.96;102196.66;5114452;28;20495;-67
2021/04/14 03:16:38;;;;;;;0.40;0.30;;;;;;;1.94;90.92;102197.47;5115116;28;20447;-66
2021/04/14 03:19:04;;;;;;;0.63;0.43;;;;;;;2.00;91.33;102195.84;5114496;28;20435;-66
2021/04/14 03:21:31;;;;;;;1.47;0.80;;;;;;;2.07;91.56;102194.00;5114587;28;20992;-67
2021/04/14 03:23:57;;;;;;;0.40;0.30;;;;;;;2.02;90.81;102197.28;5114971;28;20427;-67
2021/04/14 03:26:23;;;;;;;0.40;0.30;;;;;;;1.95;91.56;102192.97;5114952;28;20465;-66
2021/04/14 03:28:51;;;;;;;0.40;0.40;;;;;;;1.94;91.55;102186.78;5114929;28;20440;-67
2021/04/14 03:31:17;;;;;;;0.60;0.60;;;;;;;1.93;91.68;102190.50;5114788;28;20457;-67
2021/04/14 03:33:43;;;;;;;0.40;0.30;;;;;;;1.89;92.05;102191.91;5114884;28;20435;-67
2021/04/14 03:36:09;;;;;;;0.40;0.30;;;;;;;1.88;92.63;102192.13;5114752;28;20458;-65
2021/04/14 03:38:36;;;;;;;0.40;0.30;;;;;;;1.90;92.83;102190.06;5114775;28;20436;-66
2021/04/14 03:41:02;;;;;;;0.40;0.30;;;;;;;1.89;92.23;102189.25;5114710;28;20443;-67
2021/04/14 03:43:29;;;;;;;0.40;0.30;;;;;;;1.88;92.44;102181.44;5114714;28;20436;-67
2021/04/14 03:45:58;;;;;;;0.40;0.30;;;;;;;1.90;92.37;102184.72;5114313;28;20519;-68
2021/04/14 03:48:24;;;;;;;0.63;0.57;;;;;;;1.91;92.53;102183.72;5114604;28;20439;-68
2021/04/14 03:50:51;;;;;;;0.40;0.30;;;;;;;1.84;92.43;102191.72;5114283;28;20436;-68
2021/04/14 03:53:23;;;;;;;0.40;0.30;;;;;;;1.81;92.38;102185.94;5114591;28;20465;-68
2021/04/14 03:55:54;;;;;;;0.40;0.30;;;;;;;1.74;93.03;102186.75;5114471;28;20424;-68
2021/04/14 03:58:20;;;;;;;0.40;0.30;;;;;;;1.77;92.80;102186.38;5114583;28;20431;-67
2021/04/14 04:00:46;;;;;;;0.40;0.30;;;;;;;1.69;92.42;102183.06;5114036;28;20822;-67
2021/04/14 04:03:12;;;;;;;0.50;0.40;;;;;;;1.62;93.42;102187.56;5113917;28;21007;-67
2021/04/14 04:05:38;;;;;;;1.03;1.00;;;;;;;1.68;93.15;102187.59;5114299;28;20475;-67
2021/04/14 04:08:04;;;;;;;0.40;0.30;;;;;;;1.64;93.46;102186.34;5114173;28;20439;-68
2021/04/14 04:10:30;;;;;;;0.40;0.30;;;;;;;1.60;94.21;102190.44;5114331;28;20493;-68
2021/04/14 04:12:58;;;;;;;0.40;0.30;;;;;;;1.62;93.99;102187.56;5113830;28;20463;-67
2021/04/14 04:15:24;;;;;;;0.40;0.30;;;;;;;1.62;93.90;102193.72;5114472;28;20471;-67
2021/04/14 04:17:50;;;;;;;0.40;0.30;;;;;;;1.63;93.89;102199.88;5114194;28;20440;-67
2021/04/14 04:20:16;;;;;;;0.40;0.30;;;;;;;1.63;93.97;102192.69;5114158;28;20497;-68
2021/04/14 04:22:42;;;;;;;0.40;0.30;;;;;;;1.57;94.62;102190.84;5121066;22;20847;-68
2021/04/14 04:25:09;;;;;;;0.40;0.30;;;;;;;1.55;94.97;102194.72;5073121;28;20553;-68
2021/04/14 04:27:35;;;;;;;0.40;0.40;;;;;;;1.57;95.35;102198.84;5073070;28;20474;-68
2021/04/14 04:30:03;;;;;;;0.40;0.30;;;;;;;1.60;96.05;102195.78;5072902;28;20462;-68
2021/04/14 04:32:29;;;;;;;0.40;0.40;;;;;;;1.63;95.68;102203.38;5073108;28;20465;-67
2021/04/14 04:34:55;;;;;;;0.40;0.30;;;;;;;1.65;95.52;102205.84;5073196;28;20437;-67
2021/04/14 04:37:21;;;;;;;0.50;0.40;;;;;;;1.61;95.54;102202.75;5075901;28;20499;-66
2021/04/14 04:39:47;;;;;;;0.80;0.80;;;;;;;1.61;95.97;102200.09;5073041;28;21008;-68
2021/04/14 04:42:14;;;;;;;0.40;0.30;;;;;;;1.54;96.15;102204.56;5073009;28;20472;-67
2021/04/14 04:44:40;;;;;;;0.40;0.30;;;;;;;1.55;96.56;102208.06;5072932;28;20531;-67
2021/04/14 04:47:07;;;;;;;1.70;0.60;;;;;;;1.59;96.64;102204.78;5073177;28;20449;-69
2021/04/14 04:49:32;;;;;;;0.40;0.30;;;;;;;1.59;96.71;102214.66;5073241;28;20442;-69
2021/04/14 04:51:58;;;;;;;1.47;1.17;;;;;;;1.58;97.41;102210.34;5072938;28;21052;-67
2021/04/14 04:54:25;;;;;;;0.60;0.50;;;;;;;1.56;97.39;102215.06;5072655;28;20441;-67
2021/04/14 04:56:51;;;;;;;0.40;0.30;;;;;;;1.61;97.60;102209.94;5073033;28;20437;-68
2021/04/14 04:59:17;;;;;;;0.40;0.30;;;;;;;1.65;97.13;102214.69;5072978;28;20960;-67
2021/04/14 05:01:43;;;;;;;0.60;0.60;;;;;;;1.73;97.48;102221.69;5072782;28;20441;-68
2021/04/14 05:04:11;;;;;;;0.40;0.30;;;;;;;1.73;97.29;102225.19;5072836;28;20435;-67
2021/04/14 05:06:37;;;;;;;0.40;0.30;;;;;;;1.80;97.32;102219.03;5072960;28;20448;-68
2021/04/14 05:09:04;;;;;;;0.40;0.30;;;;;;;1.83;97.40;102232.00;5072529;28;20439;-67
2021/04/14 05:11:30;;;;;;;0.40;0.30;;;;;;;1.87;97.37;102233.25;5072764;28;20440;-68
2021/04/14 05:13:57;;;;;;;1.47;1.37;;;;;;;1.88;97.18;102229.53;5072725;28;20468;-68
2021/04/14 05:16:23;;;;;;;0.40;0.30;;;;;;;1.93;97.08;102233.25;5072870;28;20441;-67
2021/04/14 05:18:49;;;;;;;0.40;0.30;;;;;;;2.01;96.72;102241.06;5072829;28;20495;-68
2021/04/14 05:21:17;;;;;;;0.50;0.47;;;;;;;2.01;96.33;102235.72;5072829;28;20441;-67
2021/04/14 05:23:43;;;;;;;0.40;0.30;;;;;;;2.09;96.30;102232.03;5072253;28;20609;-68
2021/04/14 05:26:09;;;;;;;0.40;0.30;;;;;;;2.15;96.14;102235.75;5072758;28;20477;-68
2021/04/14 05:28:36;;;;;;;0.40;0.30;;;;;;;2.12;96.11;102242.31;5072823;28;20441;-68
2021/04/14 05:31:02;;;;;;;0.40;0.30;;;;;;;2.14;95.70;102248.28;5072768;28;20472;-69
2021/04/14 05:33:28;;;;;;;0.40;0.30;;;;;;;2.10;95.59;102247.03;5072842;28;20472;-69
2021/04/14 05:35:54;;;;;;;0.40;0.30;;;;;;;2.03;96.22;102247.03;5072565;28;20441;-69
2021/04/14 05:38:21;;;;;;;0.40;0.30;;;;;;;2.09;96.06;102252.59;5072661;28;20445;-68
2021/04/14 05:40:47;;;;;;;0.40;0.30;;;;;;;2.11;96.12;102262.03;5072580;28;20444;-68
2021/04/14 05:43:17;;;;;;;0.60;0.57;;;;;;;2.12;95.81;102261.00;5074805;28;20465;-69
2021/04/14 05:45:45;;;;;;;0.53;0.53;;;;;;;2.19;95.40;102264.53;5076302;28;20477;-68
2021/04/14 05:48:11;;;;;;;0.40;0.30;;;;;;;2.17;95.73;102258.59;5076119;28;20527;-68
2021/04/14 05:50:37;;;;;;;0.40;0.30;;;;;;;2.13;95.54;102262.69;5076144;28;20445;-68
2021/04/14 05:53:03;;;;;;;2.93;0.60;;;;;;;2.16;95.78;102259.59;5075998;28;20979;-68
2021/04/14 05:55:30;;;;;;;0.40;0.30;;;;;;;2.23;95.89;102270.31;5076061;28;20433;-68
2021/04/14 05:57:56;;;;;;;0.50;0.40;;;;;;;2.26;95.56;102270.72;5075935;28;20445;-67
2021/04/14 06:00:23;;;;;;;2.63;2.43;;;;;;;2.31;95.46;102274.63;5075941;28;20862;-66
2021/04/14 06:02:49;;;;;;;0.40;0.30;;;;;;;2.34;95.65;102264.34;5075696;28;20469;-66
2021/04/14 06:05:17;;;;;;;0.40;0.30;;;;;;;2.31;95.78;102271.97;5076038;28;20486;-67
2021/04/14 06:07:43;;;;;;;0.40;0.40;;;;;;;2.34;95.36;102266.19;5075769;28;20874;-67
2021/04/14 06:10:11;;;;;;;1.37;0.50;;;;;;;2.39;94.92;102264.56;5075738;28;20536;-67
2021/04/14 06:12:39;;;;;;;0.40;0.30;;;;;;;2.33;95.49;102261.88;5075572;28;20471;-68
2021/04/14 06:15:09;;;;;;;0.40;0.30;;;;;;;2.41;95.48;102269.69;5075622;28;20448;-66
2021/04/14 06:17:35;;;;;;;0.40;0.30;;;;;;;2.51;95.08;102265.56;5075574;28;20784;-68
2021/04/14 06:20:05;;;;;;;0.40;0.40;;;;;;;2.57;94.92;102271.13;5076249;28;20527;-67
2021/04/14 06:22:31;;;;;;;1.63;1.13;;;;;;;2.59;95.27;102272.59;5077752;28;20861;-66
2021/04/14 06:24:57;;;;;;;0.40;0.30;;;;;;;2.68;94.56;102268.66;5075402;28;20489;-68
2021/04/14 06:27:32;;;;;;;0.40;0.30;;;;;;;2.71;94.40;102273.63;5075659;28;20440;-67
2021/04/14 06:29:59;;;;;;;2.20;1.03;;;;;;;2.84;94.41;102272.78;5075429;28;20472;-68
2021/04/14 06:32:24;;;;;;;0.40;0.30;;;;;;;2.93;93.86;102276.06;5074994;28;20975;-68
2021/04/14 06:34:52;;;;;;;0.40;0.30;;;;;;;2.98;93.72;102273.59;5075290;28;20448;-68
2021/04/14 06:37:18;;;;;;;0.40;0.30;;;;;;;2.97;93.74;102271.94;5075188;28;20444;-67
2021/04/14 06:39:48;;;;;;;7.13;1.43;;;;;;;3.09;93.27;102278.28;5075101;28;20449;-68
2021/04/14 06:42:39;;;;;;;0.90;0.50;;;;;;;3.20;92.69;102279.50;5075114;28;20465;-67
2021/04/14 06:45:13;;;;;;;0.40;0.30;;;;;;;3.23;92.41;102279.91;5074923;28;20470;-67
2021/04/14 06:47:54;;;;;;;0.60;0.60;;;;;;;3.33;92.67;102274.13;5075108;28;20500;-68
2021/04/14 06:50:24;;;;;;;0.60;0.50;;;;;;;3.43;92.27;102277.16;5075062;28;20430;-67
2021/04/14 06:52:55;;;;;;;0.40;0.30;;;;;;;3.52;91.82;102275.91;5074710;28;20461;-68
2021/04/14 06:55:26;;;;;;;0.40;0.30;;;;;;;3.61;91.84;102273.81;5073896;28;20492;-68
2021/04/14 06:57:56;;;;;;;1.43;0.87;;;;;;;3.69;91.10;102281.59;5074778;28;20433;-67
2021/04/14 07:00:28;;;;;;;0.47;0.40;;;;;;;3.80;90.07;102274.75;5074706;28;20441;-68
2021/04/14 07:02:58;;;;;;;0.50;0.40;;;;;;;3.79;89.87;102273.09;5074711;28;20461;-68
2021/04/14 07:05:27;;;;;;;1.00;0.40;;;;;;;3.85;90.35;102276.78;5074324;28;20878;-68
2021/04/14 07:07:56;;;;;;;1.33;1.23;;;;;;;3.95;89.91;102280.66;5074932;28;20514;-68
2021/04/14 07:10:24;;;;;;;0.40;0.30;;;;;;;3.96;89.63;102273.44;5074705;28;20441;-67
2021/04/14 07:12:53;;;;;;;0.40;0.30;;;;;;;4.13;89.58;102279.94;5074622;28;20465;-68
2021/04/14 07:15:21;;;;;;;0.40;0.30;;;;;;;4.26;88.09;102282.53;5074375;28;20445;-68
2021/04/14 07:17:57;;;;;;;0.40;0.30;;;;;;;4.30;88.14;102283.75;5074448;28;20449;-68
2021/04/14 07:20:28;;;;;;;0.40;0.30;;;;;;;4.40;88.24;102275.19;5074073;28;20432;-67
2021/04/14 07:23:05;;;;;;;0.83;0.83;;;;;;;4.48;88.17;102283.00;5074182;28;20502;-69
2021/04/14 07:25:38;;;;;;;0.40;0.40;;;;;;;4.53;87.59;102279.66;5074212;28;20559;-68
2021/04/14 07:28:20;;;;;;;0.50;0.50;;;;;;;4.51;87.90;102279.03;5074326;28;20513;-68
2021/04/14 07:30:50;;;;;;;0.50;0.30;;;;;;;4.57;87.84;102285.41;5074195;28;20429;-68
2021/04/14 07:33:25;;;;;;;0.40;0.30;;;;;;;4.71;87.69;102282.38;5074091;28;20465;-68
2021/04/14 07:36:00;;;;;;;1.23;0.73;;;;;;;4.89;86.97;102270.84;5074197;28;20466;-67
2021/04/14 07:38:36;;;;;;;0.60;0.53;;;;;;;5.06;86.76;102279.16;5074116;28;20457;-67
2021/04/14 07:41:11;;;;;;;1.80;1.30;;;;;;;5.15;84.21;102275.16;5074103;28;20524;-68
2021/04/14 07:43:47;;;;;;;1.43;0.40;;;;;;;5.35;84.82;102280.28;5073545;28;20973;-68
2021/04/14 07:46:16;;;;;;;0.50;0.40;;;;;;;5.52;83.49;102272.44;5073920;28;20572;-67
2021/04/14 07:48:45;;;;;;;0.50;0.50;;;;;;;5.63;83.59;102271.72;5073920;28;20844;-68
2021/04/14 07:51:13;;;;;;;0.40;0.37;;;;;;;5.60;82.34;102276.72;5073219;28;20445;-69
2021/04/14 07:53:41;;;;;;;0.57;0.57;;;;;;;5.65;82.92;102277.66;5073655;28;20465;-67
2021/04/14 07:56:09;;;;;;;7.50;0.77;;;;;;;5.71;82.88;102273.25;5073286;28;20965;-67
2021/04/14 07:58:37;;;;;;;0.40;0.40;;;;;;;5.82;81.91;102281.38;5073534;28;20437;-68
2021/04/14 08:01:14;;;;;;;0.90;0.80;;;;;;;5.92;81.13;102274.66;5073604;28;20483;-68
2021/04/14 08:03:41;;;;;;;0.40;0.30;;;;;;;6.00;80.44;102287.78;5073774;28;20461;-68
2021/04/14 08:06:09;;;;;;;0.77;0.50;;;;;;;6.09;78.96;102282.91;5073617;28;20488;-67
2021/04/14 08:08:36;;;;;;;1.00;0.57;;;;;;;6.11;77.83;102280.78;5073461;28;20437;-66
2021/04/14 08:11:07;;;;;;;0.77;0.77;;;;;;;6.12;78.59;102285.97;5073467;28;20441;-68
2021/04/14 08:13:38;;;;;;;0.40;0.20;;;;;;;6.12;77.83;102285.97;5073440;28;20465;-67
2021/04/14 08:16:30;;;;;;;0.60;0.60;;;;;;;6.15;77.66;102280.09;5073377;28;20426;-67
2021/04/14 08:19:01;;;;;;;0.40;0.40;;;;;;;6.38;77.05;102281.25;5073402;28;20419;-68
2021/04/14 08:21:33;;;;;;;0.70;0.40;;;;;;;6.26;76.51;102283.91;5073117;28;21012;-68
2021/04/14 08:24:02;;;;;;;0.40;0.30;;;;;;;6.33;76.74;102276.56;5073174;28;20493;-68
2021/04/14 08:26:29;;;;;;;1.57;1.47;;;;;;;6.38;75.98;102276.69;5073260;28;20481;-67
2021/04/14 08:29:08;;;;;;;2.67;0.83;;;;;;;6.61;76.83;102278.59;5073238;28;20445;-68
2021/04/14 08:31:45;;;;;;;0.40;0.40;;;;;;;6.88;74.62;102278.13;5073333;28;20429;-68
2021/04/14 08:34:16;;;;;;;0.67;0.67;;;;;;;7.01;72.86;102276.03;5073319;28;20495;-68
2021/04/14 08:36:49;;;;;;;0.40;0.30;;;;;;;7.08;73.08;102275.88;5073270;28;20425;-68
2021/04/14 08:39:19;;;;;;;0.60;0.57;;;;;;;7.00;72.19;102270.88;5072986;28;20433;-70
2021/04/14 08:41:46;;;;;;;1.03;0.70;;;;;;;7.06;72.40;102272.63;5072828;28;20483;-70
2021/04/14 08:44:15;;;;;;;0.73;0.73;;;;;;;7.11;72.31;102264.63;5073536;28;20437;-68
2021/04/14 08:46:43;;;;;;;0.83;0.30;;;;;;;7.03;71.17;102273.91;5073020;28;20477;-68
2021/04/14 08:49:12;;;;;;;0.70;0.50;;;;;;;7.06;71.15;102269.91;5073259;28;20466;-70
2021/04/14 08:51:41;;;;;;;0.50;0.40;;;;;;;7.18;70.57;102273.44;5073129;28;20571;-69
2021/04/14 08:54:13;;;;;;;3.37;1.40;;;;;;;7.52;69.96;102270.88;5073331;28;20433;-69
2021/04/14 08:56:38;;;;;;;0.70;0.70;;;;;;;7.99;69.36;102271.53;5073117;28;20433;-70
2021/04/14 08:59:04;;;;;;;1.10;0.73;;;;;;;8.13;65.11;102263.97;5072930;28;20445;-70
2021/04/14 09:01:32;;;;;;;0.80;0.30;;;;;;;8.25;65.05;102266.59;5072941;28;20445;-70
2021/04/14 09:04:00;;;;;;;0.40;0.30;;;;;;;8.36;63.16;102260.28;5072963;28;20461;-67
2021/04/14 09:06:28;;;;;;;0.50;0.40;;;;;;;8.47;64.36;102250.53;5072879;28;20532;-66
2021/04/14 09:08:56;;;;;;;1.13;1.03;;;;;;;8.53;61.43;102250.34;5072944;28;20436;-66
2021/04/14 09:11:25;;;;;;;0.67;0.67;;;;;;;8.47;60.75;102253.22;5072872;28;20494;-66
2021/04/14 09:13:59;;;;;;;0.83;0.50;;;;;;;8.22;59.07;102249.00;5072720;28;20461;-67
2021/04/14 09:16:30;;;;;;;0.50;0.30;;;;;;;8.21;60.25;102255.47;5072892;28;20426;-67
2021/04/14 09:19:11;;;;;;;0.40;0.30;;;;;;;8.06;61.43;102252.50;5076383;28;20429;-68
2021/04/14 09:21:50;;;;;;;0.40;0.30;;;;;;;8.01;61.66;102242.44;5076931;28;20425;-68
2021/04/14 09:24:34;;;;;;;0.47;0.30;;;;;;;7.95;57.91;102247.97;5076645;28;20474;-68
2021/04/14 09:27:02;;;;;;;0.40;0.30;;;;;;;8.04;56.62;102243.81;5076604;28;20433;-67
2021/04/14 09:29:35;;;;;;;0.40;0.30;;;;;;;8.21;57.70;102230.34;5076167;28;20819;-68
2021/04/14 09:32:09;;;;;;;0.40;0.30;;;;;;;8.17;54.76;102232.72;5076404;28;20469;-67
2021/04/14 09:34:38;;;;;;;1.53;0.90;;;;;;;8.13;55.99;102231.56;5076311;28;20422;-66
2021/04/14 09:37:08;;;;;;;0.40;0.30;;;;;;;8.06;56.01;102241.72;5076181;28;20441;-69
2021/04/14 09:39:52;;;;;;;0.40;0.30;;;;;;;8.09;55.60;102235.81;5076278;28;20879;-69
2021/04/14 09:42:33;;;;;;;5.90;1.40;;;;;;;8.33;58.76;102242.72;5076344;28;20464;-70
2021/04/14 09:45:17;;;;;;;0.50;0.43;;;;;;;8.46;54.74;102240.81;5076231;28;20468;-69
2021/04/14 09:47:43;;;;;;;0.40;0.30;;;;;;;8.41;54.58;102235.28;5076212;28;20426;-69
2021/04/14 09:50:38;;;;;;;0.43;0.30;;;;;;;8.29;53.80;102235.34;5075938;28;20849;-69
2021/04/14 09:53:08;;;;;;;1.90;0.50;;;;;;;8.23;54.51;102234.44;5073663;28;20887;-69
2021/04/14 09:55:44;;;;;;;0.50;0.40;;;;;;;8.25;54.86;102235.03;5075997;28;20421;-70
2021/04/14 09:58:16;;;;;;;0.40;0.33;;;;;;;7.98;55.62;102239.41;5075990;28;20437;-69
2021/04/14 10:00:45;;;;;;;0.47;0.37;;;;;;;7.77;54.56;102241.72;5075822;28;20425;-70
2021/04/14 10:03:19;;;;;;;0.40;0.30;;;;;;;7.57;53.94;102236.78;5075437;28;20970;-70
2021/04/14 10:05:45;;;;;;;0.40;0.23;;;;;;;7.62;54.21;102244.16;5075749;28;20467;-67
2021/04/14 10:08:15;;;;;;;0.40;0.30;;;;;;;7.82;54.95;102238.31;5075604;28;20966;-69
2021/04/14 10:10:46;;;;;;;0.50;0.30;;;;;;;8.13;55.18;102231.56;5075814;28;21000;-70
2021/04/14 10:13:15;;;;;;;0.57;0.30;;;;;;;8.70;55.11;102222.53;5076011;28;20466;-68
2021/04/14 10:15:43;;;;;;;1.73;0.93;;;;;;;9.01;52.17;102221.88;5075914;28;20437;-68
2021/04/14 10:18:21;;;;;;;1.37;0.40;;;;;;;9.17;50.80;102224.78;5075606;28;20453;-68
2021/04/14 10:20:48;;;;;;;0.40;0.30;;;;;;;9.08;51.09;102224.41;5075598;28;20468;-68
2021/04/14 10:23:18;;;;;;;2.00;1.80;;;;;;;9.01;51.49;102219.16;5100631;22;20496;-66
2021/04/14 10:25:44;;;;;;;3.03;0.63;;;;;;;8.93;51.51;102224.19;5075742;28;20481;-65
2021/04/14 10:28:21;;;;;;;2.60;2.30;;;;;;;8.61;51.54;102227.53;5075684;28;20437;-65
2021/04/14 10:30:50;;;;;;;0.40;0.20;;;;;;;8.31;52.52;102231.34;5075647;28;20433;-67
2021/04/14 10:33:19;;;;;;;0.40;0.20;;;;;;;8.09;52.60;102230.41;5075388;28;20476;-66
2021/04/14 10:35:47;;;;;;;2.50;0.60;;;;;;;8.12;53.58;102224.53;5075473;28;20434;-67
2021/04/14 10:38:13;;;;;;;0.40;0.30;;;;;;;8.38;51.90;102217.72;5075614;28;20858;-67
2021/04/14 10:40:44;;;;;;;0.50;0.30;;;;;;;8.82;50.18;102205.16;5075427;28;20429;-66
2021/04/14 10:43:12;;;;;;;0.70;0.50;;;;;;;9.24;49.54;102201.88;5075281;28;20461;-66
2021/04/14 10:45:53;;;;;;;0.40;0.30;;;;;;;9.38;47.44;102198.78;5075235;28;20550;-66
2021/04/14 10:48:19;;;;;;;0.40;0.30;;;;;;;9.68;48.94;102203.72;5075495;28;20426;-66
2021/04/14 10:50:45;;;;;;;0.40;0.37;;;;;;;9.68;47.26;102201.84;5075171;28;20437;-66
2021/04/14 10:53:12;;;;;;;0.60;0.33;;;;;;;9.26;47.73;102202.47;5075012;28;20465;-66
2021/04/14 10:55:41;;;;;;;0.40;0.30;;;;;;;8.80;47.79;102204.56;5074891;28;20467;-66
2021/04/14 10:58:13;;;;;;;0.57;0.30;;;;;;;8.71;48.87;102208.75;5075077;28;20444;-66
2021/04/14 11:00:41;;;;;;;0.40;0.30;;;;;;;8.81;49.31;102198.13;5074868;28;20437;-66
2021/04/14 11:03:09;;;;;;;0.50;0.43;;;;;;;8.99;49.04;102205.09;5074469;28;20973;-66
2021/04/14 11:05:38;;;;;;;0.40;0.30;;;;;;;8.98;50.19;102210.75;5074742;28;20488;-66
2021/04/14 11:08:04;;;;;;;0.40;0.30;;;;;;;8.78;48.79;102220.22;5074719;28;20473;-66
2021/04/14 11:10:35;;;;;;;0.40;0.20;;;;;;;8.78;50.04;102206.69;5074724;28;20503;-66
2021/04/14 11:13:01;;;;;;;0.80;0.50;;;;;;;8.86;50.40;102207.34;5074631;28;20461;-66
2021/04/14 11:15:32;;;;;;;0.40;0.30;;;;;;;8.97;50.21;102201.81;5074617;28;20460;-66
2021/04/14 11:18:01;;;;;;;1.20;1.10;;;;;;;8.89;50.93;102202.25;5074584;28;20552;-67
2021/04/14 11:20:41;;;;;;;0.40;0.30;;;;;;;8.73;50.74;102198.53;5075283;28;20444;-65
2021/04/14 11:23:17;;;;;;;0.40;0.30;;;;;;;8.74;51.47;102202.84;5075221;28;20479;-65
2021/04/14 11:25:43;;;;;;;0.50;0.40;;;;;;;8.66;51.50;102207.88;5074676;28;20887;-65
2021/04/14 11:28:11;;;;;;;0.40;0.30;;;;;;;8.73;51.44;102200.41;5074438;28;20961;-66
2021/04/14 11:30:51;;;;;;;0.50;0.33;;;;;;;8.76;51.55;102206.13;5074050;28;20449;-67
2021/04/14 11:33:20;;;;;;;0.40;0.30;;;;;;;8.88;50.93;102199.81;5074184;28;20578;-66
2021/04/14 11:35:48;;;;;;;3.70;0.60;;;;;;;9.13;49.42;102202.03;5073952;28;20433;-66
2021/04/14 11:38:32;;;;;;;6.83;0.40;;;;;;;10.13;47.98;102192.50;5074244;28;20464;-66
2021/04/14 11:40:58;;;;;;;1.03;0.50;;;;;;;11.15;45.09;102195.88;5073748;28;20421;-67